createdAt,value
2022-09-10T00:03:32.664Z,4.63
2022-09-10T00:08:31.384Z,3.95
2022-09-10T00:13:28.764Z,4.28
2022-09-10T00:18:25.972Z,4.25
2022-09-10T00:23:28.676Z,3.90
2022-09-10T00:28:28.010Z,4.10
2022-09-10T00:33:25.196Z,3.70
2022-09-10T00:38:22.649Z,3.70
2022-09-10T00:43:21.997Z,3.38
2022-09-10T00:48:27.620Z,5.70
2022-09-10T00:53:27.132Z,3.88
2022-09-10T00:58:25.917Z,4.13
2022-09-10T01:03:25.706Z,3.40
2022-09-10T01:08:23.378Z,4.13
2022-09-10T01:13:36.163Z,3.85
2022-09-10T01:18:36.180Z,3.60
2022-09-10T01:24:14.791Z,3.10
2022-09-10T01:29:41.089Z,3.75
2022-09-10T01:34:51.420Z,3.63
2022-09-10T01:39:51.368Z,4.07
2022-09-10T01:44:51.434Z,4.13
2022-09-10T01:50:12.177Z,3.92
2022-09-10T01:55:45.563Z,3.95
2022-09-10T02:00:49.657Z,3.40
2022-09-10T02:05:54.075Z,2.90
2022-09-10T02:11:06.608Z,2.72
2022-09-10T02:16:11.330Z,2.30
2022-09-10T02:21:12.826Z,2.38
2022-09-10T02:31:13.541Z,2.17
2022-09-10T02:36:16.326Z,2.10
2022-09-10T02:41:15.721Z,2.37
2022-09-10T02:46:14.126Z,2.95
2022-09-10T02:51:12.481Z,2.78
2022-09-10T02:56:16.496Z,3.00
2022-09-10T03:01:19.435Z,2.45
2022-09-10T03:06:18.146Z,3.15
2022-09-10T03:11:19.132Z,3.22
2022-09-10T03:16:18.655Z,2.77
2022-09-10T03:21:21.841Z,2.72
2022-09-10T03:26:21.549Z,2.88
2022-09-10T03:31:19.600Z,2.88
2022-09-10T03:36:23.226Z,2.40
2022-09-10T03:41:24.627Z,2.45
2022-09-10T03:51:24.011Z,2.15
2022-09-10T03:56:22.540Z,2.50
2022-09-10T04:01:20.577Z,3.80
2022-09-10T04:06:18.658Z,3.22
2022-09-10T04:11:21.398Z,2.55
2022-09-10T04:16:22.426Z,2.53
2022-09-10T04:21:20.648Z,2.70
2022-09-10T04:26:21.289Z,2.78
2022-09-10T04:31:19.674Z,2.40
2022-09-10T04:36:17.773Z,3.20
2022-09-10T04:41:15.912Z,2.70
2022-09-10T04:46:17.892Z,2.15
2022-09-10T04:51:18.997Z,2.17
2022-09-10T04:56:26.815Z,2.22
2022-09-10T05:01:35.039Z,2.55
2022-09-10T05:06:37.635Z,1.73
2022-09-10T05:11:37.451Z,3.20
2022-09-10T05:16:37.571Z,2.10
2022-09-10T05:21:36.254Z,1.98
2022-09-10T05:26:33.701Z,1.95
2022-09-10T05:31:31.374Z,1.95
2022-09-10T05:36:29.726Z,1.70
2022-09-10T05:41:28.381Z,2.13
2022-09-10T05:46:26.226Z,1.95
2022-09-10T05:51:27.937Z,2.38
2022-09-10T05:56:28.260Z,1.60
2022-09-10T06:01:25.636Z,1.35
2022-09-10T06:06:25.936Z,1.20
2022-09-10T06:11:32.689Z,1.42
2022-09-10T06:16:29.914Z,1.13
2022-09-10T06:21:29.623Z,1.10
2022-09-10T06:26:27.360Z,1.10
2022-09-10T06:31:25.317Z,1.33
2022-09-10T06:36:22.540Z,1.50
2022-09-10T06:41:19.791Z,1.58
2022-09-10T06:46:56.736Z,1.42
2022-09-10T06:51:36.898Z,0.95
2022-09-10T06:56:34.377Z,1.60
2022-09-10T07:01:31.898Z,0.90
2022-09-10T07:06:34.953Z,0.90
2022-09-10T07:11:39.232Z,1.15
2022-09-10T07:16:41.747Z,0.50
2022-09-10T07:21:39.588Z,0.70
2022-09-10T07:26:36.835Z,0.52
2022-09-10T07:31:35.602Z,0.50
2022-09-10T07:36:33.161Z,0.50
2022-09-10T07:41:32.112Z,0.50
2022-09-10T07:46:30.196Z,0.60
2022-09-10T07:51:30.272Z,0.50
2022-09-10T07:56:27.801Z,0.43
2022-09-10T08:01:27.315Z,1.33
2022-09-10T08:11:22.468Z,0.50
2022-09-10T08:16:25.479Z,0.70
2022-09-10T08:21:22.775Z,0.75
2022-09-10T08:26:23.877Z,0.55
2022-09-10T08:31:22.280Z,1.05
2022-09-10T08:36:21.926Z,0.50
2022-09-10T08:41:19.450Z,0.70
2022-09-10T08:46:24.459Z,0.50
2022-09-10T08:51:57.001Z,0.68
2022-09-10T08:57:01.098Z,0.35
2022-09-10T09:02:22.464Z,0.50
2022-09-10T09:07:42.043Z,0.45
2022-09-10T09:12:52.768Z,0.38
2022-09-10T09:18:20.370Z,0.47
2022-09-10T09:23:22.055Z,0.28
2022-09-10T09:28:39.018Z,0.30
2022-09-10T09:33:37.930Z,0.57
2022-09-10T09:38:45.238Z,0.25
2022-09-10T09:43:51.752Z,0.47
2022-09-10T09:48:53.733Z,0.40
2022-09-10T09:54:18.502Z,0.52
2022-09-10T09:59:28.391Z,0.40
2022-09-10T10:04:31.231Z,0.60
2022-09-10T10:09:33.814Z,0.40
2022-09-10T10:14:31.047Z,1.40
2022-09-10T10:19:28.316Z,0.65
2022-09-10T10:24:32.256Z,0.75
2022-09-10T10:29:29.861Z,0.80
2022-09-10T10:34:32.738Z,0.60
2022-09-10T10:39:51.814Z,0.60
2022-09-10T10:45:14.871Z,0.60
2022-09-10T10:50:38.156Z,0.50
2022-09-10T10:56:03.963Z,0.88
2022-09-10T11:01:27.798Z,0.55
2022-09-10T11:06:43.541Z,1.00
2022-09-10T11:12:02.573Z,0.70
2022-09-10T11:17:21.332Z,0.60
2022-09-10T11:22:31.426Z,0.70
2022-09-10T11:32:39.574Z,0.60
2022-09-10T11:38:25.779Z,0.80
2022-09-10T11:43:33.430Z,0.75
2022-09-10T11:48:40.639Z,0.90
2022-09-10T11:53:38.255Z,0.70
2022-09-10T11:58:57.264Z,0.75
2022-09-10T12:04:31.821Z,0.70
2022-09-10T12:09:50.003Z,0.80
2022-09-10T12:14:47.667Z,0.75
2022-09-10T12:19:49.002Z,0.70
2022-09-10T12:25:01.787Z,0.80
2022-09-10T12:30:27.810Z,0.85
2022-09-10T12:35:34.784Z,0.70
2022-09-10T12:40:32.708Z,0.93
2022-09-10T12:46:03.319Z,0.50
2022-09-10T12:51:06.640Z,0.40
2022-09-10T12:56:15.840Z,0.50
2022-09-10T13:01:36.033Z,0.60
2022-09-10T13:11:36.908Z,0.70
2022-09-10T13:16:35.286Z,0.70
2022-09-10T13:21:32.544Z,0.50
2022-09-10T13:26:31.340Z,1.00
2022-09-10T13:31:36.320Z,0.60
2022-09-10T13:36:56.339Z,0.70
2022-09-10T13:42:12.089Z,0.43
2022-09-10T13:47:29.112Z,0.75
2022-09-10T13:52:33.354Z,0.60
2022-09-10T13:57:41.081Z,0.57
2022-09-10T14:02:53.122Z,0.50
2022-09-10T14:07:56.384Z,0.95
2022-09-10T14:12:54.924Z,0.82
2022-09-10T14:17:57.839Z,0.70
2022-09-10T14:23:13.933Z,0.73
2022-09-10T14:28:25.269Z,0.55
2022-09-10T14:33:28.420Z,0.77
2022-09-10T14:38:38.404Z,1.55
2022-09-10T14:44:24.043Z,1.50
2022-09-10T14:49:27.057Z,1.33
2022-09-10T14:54:25.924Z,1.58
2022-09-10T14:59:31.240Z,1.50
2022-09-10T15:04:30.306Z,1.20
2022-09-10T15:09:29.757Z,1.40
2022-09-10T15:14:27.373Z,1.27
2022-09-10T15:19:25.318Z,1.85
2022-09-10T15:24:23.481Z,1.33
2022-09-10T15:29:20.716Z,1.35
2022-09-10T15:34:19.553Z,2.95
2022-09-10T15:39:16.825Z,1.15
2022-09-10T15:44:14.171Z,1.55
2022-09-10T15:49:12.119Z,3.10
2022-09-10T15:54:11.414Z,1.15
2022-09-10T15:59:11.884Z,1.30
2022-09-10T16:04:10.045Z,1.05
2022-09-10T16:09:10.381Z,1.33
2022-09-10T16:14:11.396Z,1.00
2022-09-10T16:19:10.737Z,1.10
2022-09-10T16:24:08.342Z,1.70
2022-09-10T16:29:17.724Z,1.23
2022-09-10T16:34:18.714Z,1.30
2022-09-10T16:39:17.274Z,1.50
2022-09-10T16:44:15.898Z,2.25
2022-09-10T16:49:14.129Z,2.50
2022-09-10T16:54:13.820Z,1.83
2022-09-10T16:59:15.286Z,1.50
2022-09-10T17:04:22.287Z,2.10
2022-09-10T17:09:19.871Z,1.88
2022-09-10T17:14:17.181Z,2.92
2022-09-10T17:19:23.849Z,2.97
2022-09-10T17:24:26.128Z,3.00
2022-09-10T17:29:25.497Z,2.47
2022-09-10T17:34:24.697Z,2.80
2022-09-10T17:39:22.116Z,1.93
2022-09-10T17:44:19.720Z,2.45
2022-09-10T17:49:17.105Z,3.42
2022-09-10T17:54:15.445Z,2.92
2022-09-10T17:59:16.864Z,3.35
2022-09-10T18:04:14.527Z,2.40
2022-09-10T18:09:11.854Z,2.45
2022-09-10T18:14:19.021Z,2.00
2022-09-10T18:19:17.870Z,2.55
2022-09-10T18:24:17.276Z,1.98
2022-09-10T18:29:26.367Z,2.00
2022-09-10T18:34:31.178Z,2.20
2022-09-10T18:39:30.548Z,2.78
2022-09-10T18:44:31.372Z,3.27
2022-09-10T18:49:29.407Z,2.85
2022-09-10T18:54:30.557Z,3.00
2022-09-10T18:59:31.068Z,2.60
2022-09-10T19:04:54.649Z,3.40
2022-09-10T19:09:57.920Z,3.15
2022-09-10T19:14:55.152Z,3.58
2022-09-10T19:19:52.465Z,2.90
2022-09-10T19:24:54.985Z,3.08
2022-09-10T19:29:53.928Z,3.65
2022-09-10T19:34:51.948Z,3.03
2022-09-10T19:39:49.514Z,3.03
2022-09-10T19:44:46.779Z,4.15
2022-09-10T19:49:43.988Z,3.60
2022-09-10T19:54:41.176Z,3.40
2022-09-10T19:59:39.135Z,2.97
2022-09-10T20:04:36.535Z,3.42
2022-09-10T20:09:37.903Z,3.78
2022-09-10T20:14:38.293Z,3.17
2022-09-10T20:19:35.492Z,3.60
2022-09-10T20:24:32.766Z,3.63
2022-09-10T20:29:33.397Z,4.60
2022-09-10T20:34:31.528Z,4.13
2022-09-10T20:39:30.063Z,4.95
2022-09-10T20:44:30.202Z,6.03
2022-09-10T20:49:28.113Z,5.30
2022-09-10T20:54:25.862Z,4.28
2022-09-10T20:59:27.543Z,5.75
2022-09-10T21:04:26.571Z,5.20
2022-09-10T21:09:23.944Z,4.80
2022-09-10T21:14:21.191Z,4.72
2022-09-10T21:19:18.929Z,5.18
2022-09-10T21:24:22.617Z,4.93
2022-09-10T21:29:21.448Z,5.07
2022-09-10T21:34:19.467Z,4.82
2022-09-10T21:39:18.100Z,4.82
2022-09-10T21:44:25.402Z,3.67
2022-09-10T21:49:22.731Z,3.00
2022-09-10T21:54:22.098Z,2.58
2022-09-10T21:59:20.639Z,2.40
2022-09-10T22:04:22.385Z,2.45
2022-09-10T22:09:21.402Z,2.03
2022-09-10T22:14:21.590Z,2.80
2022-09-10T22:24:19.110Z,2.75
2022-09-10T22:29:18.589Z,3.30
2022-09-10T22:34:17.377Z,2.40
2022-09-10T22:39:17.138Z,2.70
2022-09-10T22:44:15.298Z,2.63
2022-09-10T22:49:20.937Z,2.58
2022-09-10T22:54:22.123Z,2.88
2022-09-10T22:59:19.593Z,2.35
2022-09-10T23:04:17.071Z,2.10
2022-09-10T23:09:16.618Z,2.53
2022-09-10T23:14:20.068Z,2.13
2022-09-10T23:19:25.313Z,2.00
2022-09-10T23:24:24.668Z,1.98
2022-09-10T23:29:23.509Z,2.00
2022-09-10T23:34:21.790Z,2.08
2022-09-10T23:39:23.979Z,2.10
2022-09-10T23:44:21.577Z,2.28
2022-09-10T23:49:18.853Z,2.33
2022-09-10T23:54:16.262Z,2.03
2022-09-10T23:59:13.664Z,2.08
